createdAt,value
2022-12-01T00:00:10.384Z,4.95
2022-12-01T00:02:36.968Z,5.20
2022-12-01T00:05:03.704Z,5.28
2022-12-01T00:07:33.353Z,5.40
2022-12-01T00:10:18.399Z,4.95
2022-12-01T00:12:44.952Z,5.10
2022-12-01T00:15:11.676Z,5.13
2022-12-01T00:17:38.984Z,5.28
2022-12-01T00:20:08.410Z,5.50
2022-12-01T00:22:34.948Z,4.97
2022-12-01T00:25:01.457Z,4.90
2022-12-01T00:27:28.015Z,4.20
2022-12-01T00:29:54.479Z,5.95
2022-12-01T00:32:20.960Z,5.78
2022-12-01T00:34:47.476Z,5.78
2022-12-01T00:37:14.074Z,6.72
2022-12-01T00:39:40.570Z,6.32
2022-12-01T00:42:12.895Z,6.75
2022-12-01T00:44:39.893Z,6.78
2022-12-01T00:47:06.477Z,8.90
2022-12-01T00:49:33.014Z,8.02
2022-12-01T00:51:59.495Z,8.73
2022-12-01T00:54:26.120Z,9.27
2022-12-01T00:56:52.634Z,9.55
2022-12-01T00:59:19.215Z,9.32
2022-12-01T01:01:46.757Z,8.90
2022-12-01T01:04:13.492Z,9.13
2022-12-01T01:06:39.997Z,7.60
2022-12-01T01:09:06.506Z,7.20
2022-12-01T01:11:33.050Z,6.43
2022-12-01T01:14:00.339Z,5.95
2022-12-01T01:16:27.039Z,6.00
2022-12-01T01:18:53.880Z,6.60
2022-12-01T01:21:21.700Z,7.47
2022-12-01T01:23:49.788Z,7.38
2022-12-01T01:26:24.548Z,8.52
2022-12-01T01:28:51.815Z,9.18
2022-12-01T01:31:21.184Z,10.88
2022-12-01T01:33:48.061Z,13.60
2022-12-01T01:36:15.867Z,13.35
2022-12-01T01:38:42.692Z,12.13
2022-12-01T01:41:09.737Z,12.18
2022-12-01T01:43:41.039Z,9.85
2022-12-01T01:46:08.296Z,8.85
2022-12-01T01:48:36.578Z,8.65
2022-12-01T01:51:03.408Z,8.45
2022-12-01T01:53:30.881Z,9.63
2022-12-01T01:55:58.076Z,10.07
2022-12-01T01:58:27.051Z,10.32
2022-12-01T02:00:53.610Z,11.15
2022-12-01T02:03:20.504Z,10.15
2022-12-01T02:05:47.367Z,10.40
2022-12-01T02:08:14.042Z,10.50
2022-12-01T02:11:06.984Z,9.90
2022-12-01T02:14:02.785Z,10.30
2022-12-01T02:16:53.854Z,10.27
2022-12-01T02:19:23.423Z,11.77
2022-12-01T02:24:42.659Z,11.85
2022-12-01T02:27:20.166Z,10.63
2022-12-01T02:30:32.089Z,9.55
2022-12-01T02:33:36.100Z,9.15
2022-12-01T02:36:05.481Z,8.18
2022-12-01T02:38:41.570Z,7.97
2022-12-01T02:41:23.375Z,7.30
2022-12-01T02:44:06.384Z,6.85
2022-12-01T02:46:37.180Z,7.75
2022-12-01T02:49:10.449Z,8.70
2022-12-01T02:51:38.218Z,7.28
2022-12-01T02:54:05.558Z,7.88
2022-12-01T02:56:32.210Z,7.55
2022-12-01T02:58:58.718Z,7.28
2022-12-01T03:01:37.992Z,8.55
2022-12-01T03:04:21.555Z,7.15
2022-12-01T03:07:27.158Z,8.73
2022-12-01T03:10:24.328Z,8.57
2022-12-01T03:13:03.528Z,8.13
2022-12-01T03:15:37.312Z,8.98
2022-12-01T03:18:10.407Z,8.68
2022-12-01T03:20:59.509Z,9.35
2022-12-01T03:23:29.200Z,9.43
2022-12-01T03:25:57.015Z,8.98
2022-12-01T03:28:28.939Z,9.32
2022-12-01T03:30:59.910Z,8.13
2022-12-01T03:33:49.830Z,9.93
2022-12-01T03:36:21.076Z,9.88
2022-12-01T03:38:51.887Z,9.35
2022-12-01T03:41:23.802Z,9.75
2022-12-01T03:43:55.907Z,10.40
2022-12-01T03:46:42.503Z,9.25
2022-12-01T03:49:09.811Z,9.70
2022-12-01T03:51:40.708Z,9.30
2022-12-01T03:54:16.657Z,9.82
2022-12-01T03:56:49.020Z,10.40
2022-12-01T03:59:16.665Z,11.02
2022-12-01T04:01:43.307Z,11.18
2022-12-01T04:04:12.224Z,10.48
2022-12-01T04:06:41.152Z,10.20
2022-12-01T04:09:07.781Z,10.48
2022-12-01T04:12:00.131Z,10.27
2022-12-01T04:14:26.693Z,10.18
2022-12-01T04:16:53.252Z,10.95
2022-12-01T04:19:19.944Z,10.65
2022-12-01T04:21:46.471Z,11.35
2022-12-01T04:24:13.378Z,10.73
2022-12-01T04:26:39.945Z,11.35
2022-12-01T04:29:08.661Z,12.00
2022-12-01T04:31:35.780Z,14.10
2022-12-01T04:34:02.485Z,15.15
2022-12-01T04:36:33.953Z,16.38
2022-12-01T04:39:00.665Z,15.90
2022-12-01T04:41:27.410Z,15.15
2022-12-01T04:43:54.834Z,12.82
2022-12-01T04:46:22.430Z,11.75
2022-12-01T04:48:49.107Z,12.15
2022-12-01T04:51:15.640Z,12.00
2022-12-01T04:53:42.180Z,11.07
2022-12-01T04:56:08.730Z,11.73
2022-12-01T04:58:37.803Z,10.85
2022-12-01T05:01:06.146Z,11.23
2022-12-01T05:03:36.823Z,10.85
2022-12-01T05:06:11.681Z,10.98
2022-12-01T05:08:38.534Z,10.85
2022-12-01T05:11:07.714Z,10.18
2022-12-01T05:13:36.843Z,10.15
2022-12-01T05:16:12.194Z,11.95
2022-12-01T05:18:38.936Z,13.25
2022-12-01T05:21:07.543Z,13.55
2022-12-01T05:23:35.646Z,12.75
2022-12-01T05:26:03.629Z,12.48
2022-12-01T05:28:30.818Z,12.50
2022-12-01T05:30:57.783Z,11.43
2022-12-01T05:33:26.160Z,12.30
2022-12-01T05:35:53.080Z,11.30
2022-12-01T05:38:19.887Z,12.00
2022-12-01T05:40:53.708Z,11.00
2022-12-01T05:43:26.857Z,11.10
2022-12-01T05:45:55.740Z,12.43
2022-12-01T05:48:22.370Z,13.75
2022-12-01T05:50:48.931Z,14.43
2022-12-01T05:53:15.777Z,14.20
2022-12-01T05:55:42.432Z,12.80
2022-12-01T05:58:09.476Z,12.88
2022-12-01T06:00:40.883Z,11.82
2022-12-01T06:03:11.820Z,9.95
2022-12-01T06:05:39.536Z,9.20
2022-12-01T06:08:06.279Z,11.52
2022-12-01T06:10:32.902Z,9.48
2022-12-01T06:12:59.508Z,10.63
2022-12-01T06:15:27.072Z,9.95
2022-12-01T06:17:53.685Z,9.10
2022-12-01T06:20:20.585Z,9.77
2022-12-01T06:22:47.103Z,9.27
2022-12-01T06:36:45.575Z,8.45
2022-12-01T06:39:12.141Z,9.85
2022-12-01T06:41:39.041Z,9.05
2022-12-01T06:44:05.940Z,8.35
2022-12-01T06:46:32.700Z,8.57
2022-12-01T06:48:59.561Z,10.13
2022-12-01T06:51:26.809Z,10.73
2022-12-01T06:53:54.877Z,10.50
2022-12-01T06:56:22.629Z,9.70
2022-12-01T06:58:50.621Z,9.35
2022-12-01T07:01:18.143Z,8.70
2022-12-01T07:03:51.293Z,9.45
2022-12-01T07:06:18.593Z,9.75
2022-12-01T07:08:45.145Z,8.88
2022-12-01T07:11:13.700Z,8.57
2022-12-01T07:13:41.859Z,9.55
2022-12-01T07:16:09.183Z,7.70
2022-12-01T07:18:40.463Z,8.98
2022-12-01T07:21:10.403Z,10.98
2022-12-01T07:23:36.906Z,10.90
2022-12-01T07:26:21.901Z,11.32
2022-12-01T07:28:48.491Z,9.70
2022-12-01T07:31:17.041Z,10.05
2022-12-01T07:33:43.988Z,8.90
2022-12-01T07:36:11.974Z,8.70
2022-12-01T07:38:39.248Z,8.63
2022-12-01T07:41:08.133Z,8.23
2022-12-01T07:43:35.143Z,8.93
2022-12-01T07:46:10.688Z,8.18
2022-12-01T07:48:38.858Z,7.95
2022-12-01T07:51:09.652Z,8.05
2022-12-01T07:53:36.701Z,8.98
2022-12-01T07:56:08.319Z,10.43
2022-12-01T07:58:35.819Z,10.40
2022-12-01T08:01:09.635Z,11.75
2022-12-01T08:03:36.476Z,10.77
2022-12-01T08:06:03.444Z,9.75
2022-12-01T08:08:30.924Z,8.82
2022-12-01T08:11:00.702Z,9.25
2022-12-01T08:13:27.393Z,8.00
2022-12-01T08:15:54.392Z,9.85
2022-12-01T08:18:21.567Z,12.18
2022-12-01T08:20:48.113Z,13.82
2022-12-01T08:23:14.838Z,11.95
2022-12-01T08:25:41.351Z,11.43
2022-12-01T08:28:07.911Z,10.27
2022-12-01T08:30:34.477Z,8.98
2022-12-01T08:33:01.323Z,7.97
2022-12-01T08:35:28.006Z,8.13
2022-12-01T08:37:54.741Z,9.23
2022-12-01T08:40:22.123Z,10.93
2022-12-01T08:42:48.655Z,9.77
2022-12-01T08:45:15.294Z,9.23
2022-12-01T08:47:41.994Z,9.15
2022-12-01T08:50:08.977Z,9.90
2022-12-01T08:52:35.641Z,10.82
2022-12-01T08:55:02.390Z,9.55
2022-12-01T08:57:30.104Z,8.10
2022-12-01T08:59:56.878Z,9.18
2022-12-01T09:02:24.100Z,9.90
2022-12-01T09:04:50.999Z,11.30
2022-12-01T09:07:22.971Z,12.35
2022-12-01T09:09:52.930Z,13.73
2022-12-01T09:12:19.864Z,12.98
2022-12-01T09:14:48.335Z,11.77
2022-12-01T09:17:16.416Z,11.87
2022-12-01T09:19:43.793Z,11.20
2022-12-01T09:22:11.052Z,10.43
2022-12-01T09:24:37.802Z,9.95
2022-12-01T09:27:05.305Z,9.63
2022-12-01T09:29:32.091Z,8.65
2022-12-01T09:32:00.095Z,8.82
2022-12-01T09:34:27.107Z,8.55
2022-12-01T09:37:00.296Z,6.65
2022-12-01T09:39:26.797Z,7.35
2022-12-01T09:41:58.071Z,7.78
2022-12-01T09:44:30.498Z,8.75
2022-12-01T09:47:20.529Z,10.98
2022-12-01T09:49:54.551Z,11.32
2022-12-01T09:52:22.565Z,12.77
2022-12-01T09:54:49.442Z,13.05
2022-12-01T09:57:37.114Z,10.48
2022-12-01T10:00:11.142Z,8.88
2022-12-01T10:02:42.460Z,9.00
2022-12-01T10:05:15.660Z,8.32
2022-12-01T10:07:49.119Z,7.90
2022-12-01T10:10:26.612Z,7.60
2022-12-01T10:12:53.330Z,7.57
2022-12-01T10:15:44.058Z,6.95
2022-12-01T10:18:35.034Z,8.02
2022-12-01T10:21:10.395Z,8.98
2022-12-01T10:24:02.675Z,10.88
2022-12-01T10:26:41.277Z,11.82
2022-12-01T10:29:28.942Z,13.13
2022-12-01T10:32:00.705Z,13.88
2022-12-01T10:34:29.621Z,15.38
2022-12-01T10:36:57.071Z,13.38
2022-12-01T10:39:33.988Z,13.38
2022-12-01T10:42:21.953Z,10.75
2022-12-01T10:44:49.500Z,11.43
2022-12-01T10:47:24.677Z,10.25
2022-12-01T10:49:52.042Z,10.30
2022-12-01T10:52:30.416Z,9.60
2022-12-01T10:54:56.975Z,9.35
2022-12-01T10:57:23.902Z,10.00
2022-12-01T11:00:01.041Z,9.65
2022-12-01T11:02:29.072Z,10.18
2022-12-01T11:05:05.311Z,9.43
2022-12-01T11:07:48.111Z,10.23
2022-12-01T11:10:21.558Z,9.95
2022-12-01T11:12:57.946Z,10.57
2022-12-01T11:15:28.470Z,11.38
2022-12-01T11:18:03.223Z,11.30
2022-12-01T11:20:36.303Z,13.25
2022-12-01T11:23:18.214Z,12.35
2022-12-01T11:26:08.039Z,12.77
2022-12-01T11:28:35.372Z,11.43
2022-12-01T11:31:05.033Z,11.40
2022-12-01T11:33:53.129Z,10.15
2022-12-01T11:36:23.052Z,11.18
2022-12-01T11:38:50.494Z,10.50
2022-12-01T11:41:30.099Z,11.75
2022-12-01T11:44:01.947Z,10.70
2022-12-01T11:46:36.946Z,9.95
2022-12-01T11:49:03.865Z,10.65
2022-12-01T11:51:37.794Z,11.18
2022-12-01T11:54:13.787Z,9.73
2022-12-01T11:56:41.203Z,9.57
2022-12-01T11:59:15.138Z,8.70
2022-12-01T12:02:12.218Z,8.90
2022-12-01T12:05:03.503Z,8.38
2022-12-01T12:07:48.976Z,7.80
2022-12-01T12:10:30.621Z,7.93
2022-12-01T12:13:26.890Z,8.93
2022-12-01T12:16:18.133Z,9.30
2022-12-01T12:18:44.588Z,7.65
2022-12-01T12:21:29.416Z,8.35
2022-12-01T12:24:34.307Z,7.75
2022-12-01T12:27:30.759Z,8.38
2022-12-01T12:30:15.976Z,8.30
2022-12-01T12:33:20.243Z,8.75
2022-12-01T12:36:02.536Z,9.13
2022-12-01T12:39:03.790Z,8.52
2022-12-01T12:41:42.980Z,9.05
2022-12-01T12:44:21.819Z,8.82
2022-12-01T12:47:00.521Z,10.02
2022-12-01T12:49:36.466Z,9.13
2022-12-01T12:52:08.920Z,10.10
2022-12-01T12:55:12.940Z,11.05
2022-12-01T12:58:10.808Z,9.50
2022-12-01T13:00:43.672Z,10.20
2022-12-01T13:03:19.704Z,10.10
2022-12-01T13:05:54.425Z,9.32
2022-12-01T13:08:24.666Z,9.30
2022-12-01T13:11:12.861Z,9.38
2022-12-01T13:13:42.533Z,8.95
2022-12-01T13:16:15.997Z,8.80
2022-12-01T13:18:50.771Z,9.38
2022-12-01T13:21:19.368Z,9.55
2022-12-01T13:23:47.419Z,9.93
2022-12-01T13:26:14.417Z,9.88
2022-12-01T13:28:46.516Z,9.43
2022-12-01T13:31:14.290Z,9.02
2022-12-01T13:34:03.863Z,8.40
2022-12-01T13:39:19.290Z,7.43
2022-12-01T13:41:46.396Z,7.07
2022-12-01T13:44:28.034Z,7.40
2022-12-01T13:47:12.625Z,7.93
2022-12-01T13:49:43.894Z,8.48
2022-12-01T13:52:22.315Z,7.85
2022-12-01T13:55:00.699Z,8.40
2022-12-01T13:57:29.492Z,8.85
2022-12-01T13:59:58.887Z,8.40
2022-12-01T14:02:33.053Z,7.40
2022-12-01T14:05:24.556Z,6.68
2022-12-01T14:07:52.515Z,7.07
2022-12-01T14:10:28.323Z,7.30
2022-12-01T14:12:58.232Z,7.03
2022-12-01T14:15:40.313Z,7.32
2022-12-01T14:18:22.477Z,7.80
2022-12-01T14:20:49.702Z,7.65
2022-12-01T14:23:29.001Z,7.22
2022-12-01T14:26:03.677Z,6.60
2022-12-01T14:28:54.743Z,7.05
2022-12-01T14:31:34.590Z,7.60
2022-12-01T14:34:06.344Z,7.85
2022-12-01T14:36:48.725Z,7.30
2022-12-01T14:39:19.606Z,9.18
2022-12-01T14:41:59.084Z,7.78
2022-12-01T14:47:01.731Z,7.90
2022-12-01T14:49:33.129Z,8.38
2022-12-01T14:52:04.773Z,8.95
2022-12-01T14:54:35.776Z,8.60
2022-12-01T14:57:06.782Z,9.10
2022-12-01T14:59:35.706Z,10.07
2022-12-01T15:02:09.666Z,8.75
2022-12-01T15:05:14.737Z,9.43
2022-12-01T15:07:43.937Z,9.43
2022-12-01T15:10:17.855Z,9.68
2022-12-01T15:12:44.614Z,9.95
2022-12-01T15:15:23.589Z,10.75
2022-12-01T15:17:52.135Z,9.90
2022-12-01T15:20:29.035Z,10.18
2022-12-01T15:22:56.321Z,10.05
2022-12-01T15:25:23.622Z,10.02
2022-12-01T15:28:11.232Z,9.20
2022-12-01T15:30:38.571Z,9.50
2022-12-01T15:33:06.705Z,9.05
2022-12-01T15:35:33.531Z,9.00
2022-12-01T15:38:02.295Z,9.38
2022-12-01T15:43:39.090Z,9.05
2022-12-01T15:46:17.511Z,9.07
2022-12-01T15:48:45.503Z,9.05
2022-12-01T15:51:20.764Z,9.23
2022-12-01T15:53:50.439Z,8.98
2022-12-01T15:56:19.941Z,9.02
2022-12-01T16:01:18.764Z,8.30
2022-12-01T16:03:54.230Z,7.88
2022-12-01T16:06:23.651Z,9.00
2022-12-01T16:09:03.468Z,8.55
2022-12-01T16:11:30.654Z,7.70
2022-12-01T16:14:22.640Z,8.93
2022-12-01T16:16:50.120Z,7.97
2022-12-01T16:19:16.662Z,7.25
2022-12-01T16:21:58.181Z,8.32
2022-12-01T16:24:35.704Z,8.13
2022-12-01T16:27:05.595Z,8.27
2022-12-01T16:29:35.605Z,8.00
2022-12-01T16:32:20.157Z,8.07
2022-12-01T16:34:47.767Z,8.85
2022-12-01T16:37:15.419Z,9.35
2022-12-01T16:39:42.478Z,9.50
2022-12-01T16:42:17.240Z,10.02
2022-12-01T16:44:48.148Z,9.25
2022-12-01T16:47:23.420Z,9.32
2022-12-01T16:49:51.173Z,9.63
2022-12-01T16:55:05.001Z,8.98
2022-12-01T16:57:31.567Z,9.30
2022-12-01T16:59:58.125Z,9.02
2022-12-01T17:02:24.668Z,9.18
2022-12-01T17:04:51.423Z,9.35
2022-12-01T17:07:18.221Z,9.88
2022-12-01T17:09:44.785Z,9.40
2022-12-01T17:12:11.388Z,10.57
2022-12-01T17:14:38.016Z,9.82
2022-12-01T17:17:04.680Z,9.63
2022-12-01T17:19:31.225Z,9.85
2022-12-01T17:21:58.252Z,8.88
2022-12-01T17:24:26.004Z,8.38
2022-12-01T17:26:52.591Z,7.60
2022-12-01T17:29:19.115Z,6.32
2022-12-01T17:31:45.671Z,7.50
2022-12-01T17:34:12.168Z,7.43
2022-12-01T17:36:38.664Z,7.47
2022-12-01T17:39:05.331Z,6.80
2022-12-01T17:41:35.692Z,6.63
2022-12-01T17:44:05.691Z,7.45
2022-12-01T17:46:32.305Z,7.45
2022-12-01T17:48:59.355Z,8.10
2022-12-01T17:51:25.994Z,8.50
2022-12-01T17:53:53.827Z,8.90
2022-12-01T17:56:20.396Z,9.18
2022-12-01T17:58:49.450Z,9.68
2022-12-01T18:01:17.770Z,9.52
2022-12-01T18:03:45.027Z,9.20
2022-12-01T18:06:12.265Z,8.30
2022-12-01T18:08:39.874Z,7.85
2022-12-01T18:11:09.938Z,8.27
2022-12-01T18:13:44.438Z,7.65
2022-12-01T18:16:19.755Z,8.18
2022-12-01T18:18:47.096Z,10.73
2022-12-01T18:21:20.214Z,9.32
2022-12-01T18:23:58.605Z,9.95
2022-12-01T18:26:26.640Z,9.43
2022-12-01T18:29:06.483Z,9.95
2022-12-01T18:31:33.440Z,8.93
2022-12-01T18:34:04.949Z,8.05
2022-12-01T18:36:34.093Z,8.18
2022-12-01T18:39:01.584Z,6.30
2022-12-01T18:41:28.330Z,7.25
2022-12-01T18:43:54.956Z,7.53
2022-12-01T18:46:22.107Z,7.82
2022-12-01T18:48:51.110Z,8.00
2022-12-01T18:51:18.175Z,8.98
2022-12-01T18:53:47.878Z,9.35
2022-12-01T18:56:15.380Z,9.35
2022-12-01T18:58:42.374Z,7.88
2022-12-01T19:01:23.256Z,7.30
2022-12-01T19:03:50.033Z,7.63
2022-12-01T19:06:17.192Z,7.45
2022-12-01T19:08:43.846Z,7.25
2022-12-01T19:11:10.420Z,6.95
2022-12-01T19:13:37.092Z,7.40
2022-12-01T19:16:08.513Z,6.95
2022-12-01T19:18:36.581Z,7.53
2022-12-01T19:21:05.647Z,7.47
2022-12-01T19:23:32.809Z,6.95
2022-12-01T19:26:02.785Z,6.63
2022-12-01T19:28:29.680Z,7.53
2022-12-01T19:30:56.194Z,7.72
2022-12-01T19:33:22.773Z,7.63
2022-12-01T19:35:49.722Z,9.35
2022-12-01T19:38:16.273Z,9.45
2022-12-01T19:40:42.872Z,9.95
2022-12-01T19:43:09.470Z,11.15
2022-12-01T19:45:39.642Z,10.68
2022-12-01T19:48:06.788Z,9.02
2022-12-01T19:50:35.697Z,8.27
2022-12-01T19:53:02.463Z,7.75
2022-12-01T19:55:29.031Z,8.57
2022-12-01T19:57:55.594Z,7.55
2022-12-01T20:00:22.361Z,7.35
2022-12-01T20:02:49.433Z,7.70
2022-12-01T20:05:16.170Z,6.50
2022-12-01T20:07:42.688Z,6.78
2022-12-01T20:10:10.149Z,6.55
2022-12-01T20:12:36.829Z,6.40
2022-12-01T20:15:07.358Z,7.55
2022-12-01T20:17:37.206Z,6.70
2022-12-01T20:20:05.273Z,5.78
2022-12-01T20:22:35.951Z,6.05
2022-12-01T20:25:04.402Z,5.95
2022-12-01T20:27:31.059Z,5.45
2022-12-01T20:29:57.660Z,6.03
2022-12-01T20:32:24.486Z,6.47
2022-12-01T20:34:51.409Z,6.13
2022-12-01T20:37:18.057Z,5.80
2022-12-01T20:39:44.729Z,5.03
2022-12-01T20:42:11.409Z,5.70
2022-12-01T20:44:38.277Z,5.38
2022-12-01T20:47:04.828Z,5.25
2022-12-01T20:49:31.511Z,5.38
2022-12-01T20:51:58.148Z,5.63
2022-12-01T20:54:29.539Z,6.07
2022-12-01T20:56:56.908Z,4.75
2022-12-01T20:59:23.400Z,5.32
2022-12-01T21:01:50.066Z,5.45
2022-12-01T21:04:17.212Z,5.07
2022-12-01T21:06:43.727Z,5.13
2022-12-01T21:09:10.706Z,6.07
2022-12-01T21:12:02.965Z,4.45
2022-12-01T21:14:38.200Z,5.75
2022-12-01T21:17:36.560Z,7.97
2022-12-01T21:20:21.376Z,8.05
2022-12-01T21:22:49.722Z,7.10
2022-12-01T21:25:18.954Z,6.85
2022-12-01T21:27:46.819Z,6.32
2022-12-01T21:30:22.059Z,5.93
2022-12-01T21:32:49.561Z,5.55
2022-12-01T21:35:21.897Z,5.18
2022-12-01T21:37:49.637Z,5.72
2022-12-01T21:40:22.367Z,5.53
2022-12-01T21:42:49.044Z,5.10
2022-12-01T21:45:28.622Z,5.40
2022-12-01T21:48:15.244Z,4.78
2022-12-01T21:50:42.123Z,5.50
2022-12-01T21:53:16.067Z,5.22
2022-12-01T21:55:44.398Z,6.75
2022-12-01T21:58:24.653Z,6.95
2022-12-01T22:00:55.771Z,7.95
2022-12-01T22:03:32.439Z,9.45
2022-12-01T22:06:29.884Z,9.35
2022-12-01T22:09:00.791Z,9.85
2022-12-01T22:11:29.441Z,10.65
2022-12-01T22:14:11.148Z,9.73
2022-12-01T22:16:58.535Z,10.23
2022-12-01T22:19:28.262Z,9.38
2022-12-01T22:21:59.194Z,7.80
2022-12-01T22:24:27.437Z,7.30
2022-12-01T22:27:06.351Z,6.70
2022-12-01T22:29:40.465Z,6.75
2022-12-01T22:32:12.874Z,7.10
2022-12-01T22:34:49.668Z,7.50
2022-12-01T22:37:20.562Z,7.88
2022-12-01T22:39:48.003Z,7.18
2022-12-01T22:42:20.725Z,6.63
2022-12-01T22:44:47.438Z,6.25
2022-12-01T22:47:14.570Z,7.15
2022-12-01T22:49:41.923Z,7.45
2022-12-01T22:52:28.496Z,8.35
2022-12-01T22:54:55.057Z,8.43
2022-12-01T22:57:35.183Z,9.32
2022-12-01T23:00:14.096Z,8.30
2022-12-01T23:02:43.612Z,8.00
2022-12-01T23:07:50.979Z,6.10
2022-12-01T23:10:17.541Z,5.90
2022-12-01T23:12:45.649Z,5.50
2022-12-01T23:15:35.467Z,5.05
2022-12-01T23:18:14.059Z,4.50
2022-12-01T23:20:41.779Z,4.88
2022-12-01T23:23:14.633Z,4.50
2022-12-01T23:25:44.701Z,4.22
2022-12-01T23:28:12.148Z,3.97
2022-12-01T23:30:41.318Z,3.70
2022-12-01T23:33:21.118Z,3.85
2022-12-01T23:35:50.991Z,3.30
2022-12-01T23:38:23.986Z,3.72
2022-12-01T23:40:52.490Z,4.18
2022-12-01T23:43:25.393Z,5.13
2022-12-01T23:46:06.109Z,5.40
2022-12-01T23:48:39.699Z,5.47
2022-12-01T23:51:16.528Z,5.28
2022-12-01T23:53:43.238Z,3.95
2022-12-01T23:56:16.870Z,4.32
2022-12-01T23:58:44.186Z,4.18
